createdAt,value
2022-11-26T00:01:46.409Z,1.55
2022-11-26T00:04:13.415Z,1.52
2022-11-26T00:06:42.549Z,1.95
2022-11-26T00:09:16.645Z,1.73
2022-11-26T00:11:43.314Z,1.95
2022-11-26T00:14:17.809Z,1.70
2022-11-26T00:16:45.036Z,1.70
2022-11-26T00:19:11.648Z,1.90
2022-11-26T00:24:27.834Z,1.52
2022-11-26T00:26:57.571Z,1.50
2022-11-26T00:29:24.494Z,1.60
2022-11-26T00:31:51.362Z,1.98
2022-11-26T00:34:18.019Z,1.52
2022-11-26T00:36:44.752Z,1.65
2022-11-26T00:39:18.999Z,1.80
2022-11-26T00:41:52.624Z,1.20
2022-11-26T00:44:22.584Z,1.92
2022-11-26T00:46:50.342Z,1.52
2022-11-26T00:49:17.672Z,1.60
2022-11-26T00:51:45.849Z,2.00
2022-11-26T00:54:15.297Z,1.55
2022-11-26T00:56:46.302Z,1.55
2022-11-26T00:59:17.136Z,2.10
2022-11-26T01:01:43.906Z,1.70
2022-11-26T01:04:10.516Z,1.65
2022-11-26T01:06:40.753Z,1.70
2022-11-26T01:09:13.679Z,1.40
2022-11-26T01:11:40.268Z,1.83
2022-11-26T01:14:15.099Z,1.65
2022-11-26T01:16:43.471Z,1.65
2022-11-26T01:19:12.317Z,1.75
2022-11-26T01:21:39.309Z,1.80
2022-11-26T01:24:06.456Z,1.63
2022-11-26T01:26:38.412Z,1.80
2022-11-26T01:29:05.563Z,1.67
2022-11-26T01:31:32.582Z,1.50
2022-11-26T01:33:59.342Z,1.70
2022-11-26T01:36:27.950Z,1.80
2022-11-26T01:38:56.917Z,1.47
2022-11-26T01:42:02.413Z,1.73
2022-11-26T01:44:32.682Z,1.83
2022-11-26T01:47:00.942Z,1.75
2022-11-26T01:49:30.965Z,1.80
2022-11-26T01:52:11.535Z,1.90
2022-11-26T01:54:45.197Z,1.90
2022-11-26T01:57:25.414Z,1.67
2022-11-26T02:00:04.156Z,1.55
2022-11-26T02:02:42.799Z,1.70
2022-11-26T02:05:18.370Z,1.73
2022-11-26T02:07:46.362Z,2.10
2022-11-26T02:10:13.838Z,1.45
2022-11-26T02:12:42.673Z,1.77
2022-11-26T02:15:11.086Z,1.95
2022-11-26T02:17:45.707Z,1.63
2022-11-26T02:20:33.378Z,1.70
2022-11-26T02:23:29.918Z,1.80
2022-11-26T02:26:20.798Z,1.50
2022-11-26T02:29:17.322Z,1.75
2022-11-26T02:31:55.817Z,1.63
2022-11-26T02:34:44.860Z,1.63
2022-11-26T02:37:27.752Z,1.40
2022-11-26T02:39:54.404Z,1.65
2022-11-26T02:42:28.832Z,1.80
2022-11-26T02:44:59.139Z,1.83
2022-11-26T02:47:28.324Z,1.75
2022-11-26T02:49:59.707Z,1.48
2022-11-26T02:52:28.254Z,1.67
2022-11-26T02:54:56.743Z,1.75
2022-11-26T02:57:28.066Z,1.60
2022-11-26T02:59:55.047Z,1.58
2022-11-26T03:02:28.715Z,1.73
2022-11-26T03:04:59.853Z,1.40
2022-11-26T03:07:29.579Z,1.50
2022-11-26T03:09:59.093Z,1.70
2022-11-26T03:14:53.191Z,1.65
2022-11-26T03:17:19.896Z,1.80
2022-11-26T03:19:47.070Z,1.73
2022-11-26T03:22:14.840Z,1.90
2022-11-26T03:24:44.684Z,1.70
2022-11-26T03:27:11.351Z,1.90
2022-11-26T03:29:37.987Z,1.67
2022-11-26T03:32:05.169Z,1.50
2022-11-26T03:34:32.015Z,1.83
2022-11-26T03:36:58.589Z,1.50
2022-11-26T03:39:25.228Z,2.00
2022-11-26T03:41:51.850Z,1.80
2022-11-26T03:44:18.512Z,2.20
2022-11-26T03:46:45.114Z,1.75
2022-11-26T03:49:11.731Z,2.33
2022-11-26T03:51:38.397Z,1.80
2022-11-26T03:54:05.072Z,1.88
2022-11-26T03:56:31.698Z,2.17
2022-11-26T03:58:58.407Z,2.20
2022-11-26T04:01:25.653Z,2.67
2022-11-26T04:03:52.578Z,2.00
2022-11-26T04:06:19.318Z,2.05
2022-11-26T04:08:49.049Z,2.03
2022-11-26T04:11:15.833Z,2.10
2022-11-26T04:13:42.524Z,2.17
2022-11-26T04:16:09.952Z,2.05
2022-11-26T04:18:36.792Z,2.13
2022-11-26T04:21:06.914Z,2.03
2022-11-26T04:23:33.906Z,2.28
2022-11-26T04:26:00.593Z,1.90
2022-11-26T04:28:27.209Z,1.85
2022-11-26T04:30:53.787Z,1.80
2022-11-26T04:33:21.016Z,1.98
2022-11-26T04:35:47.991Z,1.98
2022-11-26T04:38:14.773Z,1.90
2022-11-26T04:40:41.387Z,2.00
2022-11-26T04:45:37.216Z,1.85
2022-11-26T04:48:04.021Z,1.95
2022-11-26T04:50:30.793Z,1.92
2022-11-26T04:52:57.957Z,1.75
2022-11-26T04:55:24.751Z,1.40
2022-11-26T04:57:51.556Z,2.30
2022-11-26T05:00:19.157Z,2.00
2022-11-26T05:02:45.973Z,1.75
2022-11-26T05:05:13.105Z,1.80
2022-11-26T05:07:40.401Z,1.92
2022-11-26T05:10:19.660Z,1.90
2022-11-26T05:12:46.231Z,1.75
2022-11-26T05:15:13.002Z,1.95
2022-11-26T05:17:39.628Z,1.67
2022-11-26T05:20:06.956Z,1.70
2022-11-26T05:22:33.827Z,2.00
2022-11-26T05:25:00.490Z,1.80
2022-11-26T05:27:27.199Z,1.58
2022-11-26T05:29:53.956Z,1.92
2022-11-26T05:32:20.762Z,1.98
2022-11-26T05:34:47.350Z,1.60
2022-11-26T05:37:13.951Z,1.70
2022-11-26T05:39:40.482Z,1.63
2022-11-26T05:42:09.362Z,1.55
2022-11-26T05:47:04.650Z,1.77
2022-11-26T05:49:31.426Z,1.85
2022-11-26T05:51:59.168Z,1.70
2022-11-26T05:54:26.344Z,1.70
2022-11-26T05:56:58.605Z,1.60
2022-11-26T05:59:27.415Z,1.40
2022-11-26T06:01:57.263Z,1.40
2022-11-26T06:04:24.214Z,1.63
2022-11-26T06:06:51.061Z,1.80
2022-11-26T06:09:17.851Z,1.45
2022-11-26T06:11:44.424Z,1.45
2022-11-26T06:14:13.838Z,1.63
2022-11-26T06:19:07.174Z,1.50
2022-11-26T06:21:34.073Z,1.45
2022-11-26T06:24:01.339Z,1.50
2022-11-26T06:26:28.001Z,1.70
2022-11-26T06:28:54.669Z,1.33
2022-11-26T06:31:21.630Z,1.83
2022-11-26T06:33:48.538Z,1.33
2022-11-26T06:36:15.310Z,1.90
2022-11-26T06:38:41.947Z,1.50
2022-11-26T06:41:08.795Z,1.48
2022-11-26T06:43:36.426Z,1.13
2022-11-26T06:46:05.918Z,1.70
2022-11-26T06:48:33.429Z,1.40
2022-11-26T06:51:04.992Z,1.85
2022-11-26T06:53:32.742Z,1.25
2022-11-26T06:56:01.160Z,1.55
2022-11-26T06:58:27.801Z,1.70
2022-11-26T07:00:54.764Z,1.65
2022-11-26T07:03:24.370Z,1.52
2022-11-26T07:05:53.012Z,1.70
2022-11-26T07:08:19.701Z,1.40
2022-11-26T07:10:49.257Z,1.55
2022-11-26T07:13:15.983Z,1.60
2022-11-26T07:15:42.639Z,1.70
2022-11-26T07:18:09.296Z,1.45
2022-11-26T07:20:37.011Z,1.60
2022-11-26T07:23:04.655Z,1.23
2022-11-26T07:25:31.506Z,1.50
2022-11-26T07:27:58.324Z,1.40
2022-11-26T07:30:25.359Z,1.60
2022-11-26T07:32:52.310Z,1.58
2022-11-26T07:35:18.981Z,1.50
2022-11-26T07:37:46.216Z,1.45
2022-11-26T07:40:15.697Z,1.50
2022-11-26T07:42:42.348Z,1.67
2022-11-26T07:47:38.663Z,1.55
2022-11-26T07:50:08.788Z,1.90
2022-11-26T07:52:35.427Z,1.35
2022-11-26T07:55:02.289Z,1.42
2022-11-26T07:57:28.948Z,1.50
2022-11-26T07:59:55.698Z,1.70
2022-11-26T08:02:22.360Z,1.67
2022-11-26T08:04:49.111Z,1.40
2022-11-26T08:07:23.038Z,1.70
2022-11-26T08:09:51.119Z,1.50
2022-11-26T08:12:17.868Z,1.70
2022-11-26T08:14:44.605Z,1.30
2022-11-26T08:17:11.311Z,1.48
2022-11-26T08:19:38.500Z,1.75
2022-11-26T08:22:06.185Z,1.33
2022-11-26T08:24:32.932Z,1.45
2022-11-26T08:27:00.075Z,1.33
2022-11-26T08:29:26.863Z,1.48
2022-11-26T08:31:53.719Z,1.50
2022-11-26T08:34:20.588Z,1.33
2022-11-26T08:36:49.015Z,1.60
2022-11-26T08:39:17.646Z,1.48
2022-11-26T08:41:50.624Z,1.60
2022-11-26T08:44:19.246Z,1.48
2022-11-26T08:46:45.852Z,1.92
2022-11-26T08:49:15.030Z,1.60
2022-11-26T08:51:42.226Z,1.50
2022-11-26T08:54:09.109Z,1.38
2022-11-26T08:56:36.624Z,1.40
2022-11-26T08:59:03.648Z,1.58
2022-11-26T09:01:32.786Z,1.48
2022-11-26T09:04:01.335Z,1.52
2022-11-26T09:06:29.758Z,1.13
2022-11-26T09:09:15.730Z,1.30
2022-11-26T09:12:02.421Z,1.17
2022-11-26T09:14:31.439Z,1.20
2022-11-26T09:16:58.510Z,1.60
2022-11-26T09:19:25.509Z,1.30
2022-11-26T09:21:52.095Z,1.50
2022-11-26T09:24:18.988Z,1.45
2022-11-26T09:26:45.835Z,1.48
2022-11-26T09:29:14.467Z,1.40
2022-11-26T09:32:00.835Z,1.30
2022-11-26T09:34:32.281Z,1.60
2022-11-26T09:36:58.941Z,1.23
2022-11-26T09:39:26.647Z,1.30
2022-11-26T09:42:05.738Z,1.13
2022-11-26T09:44:38.267Z,1.40
2022-11-26T09:47:22.711Z,1.75
2022-11-26T09:50:16.550Z,1.33
2022-11-26T09:52:46.542Z,1.48
2022-11-26T09:55:21.289Z,1.50
2022-11-26T09:58:12.279Z,1.35
2022-11-26T10:00:46.736Z,1.23
2022-11-26T10:03:18.213Z,1.35
2022-11-26T10:06:05.204Z,1.10
2022-11-26T10:08:46.618Z,1.27
2022-11-26T10:11:39.656Z,1.30
2022-11-26T10:14:39.302Z,1.10
2022-11-26T10:17:25.053Z,1.20
2022-11-26T10:20:27.771Z,1.10
2022-11-26T10:23:09.645Z,1.30
2022-11-26T10:25:47.456Z,1.30
2022-11-26T10:28:27.925Z,1.30
2022-11-26T10:31:04.297Z,1.20
2022-11-26T10:33:43.698Z,1.50
2022-11-26T10:38:43.141Z,1.30
2022-11-26T10:41:09.826Z,1.30
2022-11-26T10:43:36.399Z,1.40
2022-11-26T10:46:03.039Z,1.17
2022-11-26T10:48:31.631Z,1.20
2022-11-26T10:51:16.332Z,1.40
2022-11-26T10:54:00.818Z,1.02
2022-11-26T10:56:33.026Z,1.30
2022-11-26T10:59:04.072Z,1.25
2022-11-26T11:01:39.026Z,1.30
2022-11-26T11:04:23.149Z,1.13
2022-11-26T11:06:50.166Z,1.30
2022-11-26T11:09:32.277Z,0.90
2022-11-26T11:12:11.015Z,1.33
2022-11-26T11:14:43.437Z,1.30
2022-11-26T11:17:40.907Z,1.15
2022-11-26T11:20:16.597Z,1.23
2022-11-26T11:22:47.180Z,1.52
2022-11-26T11:25:26.070Z,1.30
2022-11-26T11:27:54.403Z,1.35
2022-11-26T11:30:34.815Z,1.38
2022-11-26T11:33:25.504Z,1.48
2022-11-26T11:36:17.051Z,1.33
2022-11-26T11:38:47.635Z,1.17
2022-11-26T11:41:46.533Z,1.10
2022-11-26T11:44:20.922Z,1.20
2022-11-26T11:46:59.536Z,1.23
2022-11-26T11:49:50.274Z,1.38
2022-11-26T11:52:40.706Z,1.20
2022-11-26T11:55:13.026Z,1.25
2022-11-26T11:57:45.606Z,1.05
2022-11-26T12:00:16.366Z,1.05
2022-11-26T12:02:50.784Z,1.10
2022-11-26T12:05:36.279Z,1.40
2022-11-26T12:08:30.426Z,1.10
2022-11-26T12:11:32.296Z,1.30
2022-11-26T12:14:12.363Z,0.93
2022-11-26T12:16:42.815Z,1.20
2022-11-26T12:19:34.452Z,1.13
2022-11-26T12:22:14.401Z,1.00
2022-11-26T12:24:49.575Z,1.00
2022-11-26T12:27:26.378Z,0.98
2022-11-26T12:30:05.199Z,1.20
2022-11-26T12:32:38.217Z,1.10
2022-11-26T12:35:14.031Z,1.02
2022-11-26T12:37:42.691Z,0.98
2022-11-26T12:40:30.974Z,0.98
2022-11-26T12:43:08.914Z,1.10
2022-11-26T12:46:05.962Z,1.42
2022-11-26T12:48:40.493Z,0.98
2022-11-26T12:51:31.838Z,1.20
2022-11-26T12:54:16.428Z,0.90
2022-11-26T12:57:20.595Z,1.10
2022-11-26T13:00:06.672Z,1.00
2022-11-26T13:02:37.933Z,1.08
2022-11-26T13:05:05.602Z,1.13
2022-11-26T13:08:11.423Z,1.23
2022-11-26T13:10:44.381Z,1.10
2022-11-26T13:13:11.141Z,1.33
2022-11-26T13:15:45.539Z,1.38
2022-11-26T13:18:30.910Z,1.15
2022-11-26T13:21:14.546Z,1.00
2022-11-26T13:23:53.376Z,1.20
2022-11-26T13:26:44.966Z,1.10
2022-11-26T13:29:33.843Z,1.00
2022-11-26T13:32:34.086Z,1.10
2022-11-26T13:35:19.021Z,1.10
2022-11-26T13:38:03.637Z,0.95
2022-11-26T13:40:44.029Z,0.88
2022-11-26T13:43:35.388Z,1.13
2022-11-26T13:46:08.232Z,1.10
2022-11-26T13:48:45.129Z,1.20
2022-11-26T13:51:27.459Z,1.10
2022-11-26T13:54:00.407Z,0.80
2022-11-26T13:56:35.312Z,1.83
2022-11-26T13:59:28.265Z,1.02
2022-11-26T14:02:34.874Z,1.13
2022-11-26T14:05:08.411Z,0.98
2022-11-26T14:07:38.294Z,1.00
2022-11-26T14:10:09.156Z,1.10
2022-11-26T14:13:05.193Z,1.35
2022-11-26T14:15:40.941Z,0.80
2022-11-26T14:18:17.826Z,1.05
2022-11-26T14:21:03.927Z,1.05
2022-11-26T14:23:59.152Z,1.02
2022-11-26T14:26:28.355Z,1.23
2022-11-26T14:29:06.917Z,1.00
2022-11-26T14:31:34.749Z,0.87
2022-11-26T14:34:25.969Z,1.30
2022-11-26T14:37:00.570Z,1.10
2022-11-26T14:39:28.988Z,1.13
2022-11-26T14:42:05.215Z,1.10
2022-11-26T14:44:33.412Z,1.15
2022-11-26T14:47:20.854Z,1.05
2022-11-26T14:49:54.227Z,1.00
2022-11-26T14:52:26.125Z,1.20
2022-11-26T14:54:55.878Z,1.10
2022-11-26T14:57:29.401Z,0.88
2022-11-26T14:59:57.277Z,1.10
2022-11-26T15:02:25.904Z,1.05
2022-11-26T15:05:04.602Z,1.00
2022-11-26T15:07:32.072Z,0.90
2022-11-26T15:10:15.363Z,1.10
2022-11-26T15:12:47.213Z,0.95
2022-11-26T15:15:20.466Z,1.02
2022-11-26T15:17:53.323Z,1.10
2022-11-26T15:20:23.426Z,1.05
2022-11-26T15:22:55.792Z,1.00
2022-11-26T15:25:28.997Z,0.90
2022-11-26T15:28:00.456Z,0.90
2022-11-26T15:30:35.498Z,1.00
2022-11-26T15:33:03.415Z,0.77
2022-11-26T15:35:31.155Z,0.90
2022-11-26T15:37:58.262Z,1.13
2022-11-26T15:40:36.366Z,1.20
2022-11-26T15:43:04.003Z,1.00
2022-11-26T15:45:39.067Z,1.08
2022-11-26T15:48:27.129Z,1.13
2022-11-26T15:50:59.890Z,1.00
2022-11-26T15:53:31.085Z,1.20
2022-11-26T15:55:57.872Z,1.17
2022-11-26T15:58:30.595Z,1.00
2022-11-26T16:01:01.221Z,1.10
2022-11-26T16:03:43.576Z,1.10
2022-11-26T16:06:27.083Z,1.23
2022-11-26T16:09:01.719Z,1.05
2022-11-26T16:11:31.182Z,1.20
2022-11-26T16:16:27.588Z,0.80
2022-11-26T16:18:59.900Z,1.08
2022-11-26T16:21:34.364Z,0.90
2022-11-26T16:24:08.020Z,1.00
2022-11-26T16:27:00.970Z,0.90
2022-11-26T16:29:29.579Z,1.20
2022-11-26T16:31:56.253Z,0.97
2022-11-26T16:34:25.393Z,1.10
2022-11-26T16:36:58.872Z,1.02
2022-11-26T16:39:30.021Z,1.20
2022-11-26T16:41:57.229Z,0.90
2022-11-26T16:44:24.326Z,0.93
2022-11-26T16:46:51.953Z,1.10
2022-11-26T16:49:18.589Z,1.35
2022-11-26T16:51:45.385Z,1.10
2022-11-26T16:54:15.975Z,1.20
2022-11-26T16:56:42.776Z,0.90
2022-11-26T16:59:29.052Z,1.00
2022-11-26T17:01:55.661Z,1.00
2022-11-26T17:04:22.649Z,1.38
2022-11-26T17:06:52.173Z,1.25
2022-11-26T17:11:49.070Z,0.95
2022-11-26T17:14:15.957Z,1.10
2022-11-26T17:16:42.829Z,1.00
2022-11-26T17:19:13.356Z,0.85
2022-11-26T17:21:44.056Z,1.00
2022-11-26T17:24:10.759Z,1.00
2022-11-26T17:26:37.532Z,1.00
2022-11-26T17:29:04.386Z,1.05
2022-11-26T17:31:31.051Z,0.90
2022-11-26T17:33:57.771Z,1.20
2022-11-26T17:36:24.435Z,1.42
2022-11-26T17:38:51.565Z,1.00
2022-11-26T17:41:18.597Z,1.25
2022-11-26T17:43:45.158Z,1.17
2022-11-26T17:46:21.684Z,1.25
2022-11-26T17:48:49.360Z,1.33
2022-11-26T17:51:16.483Z,1.67
2022-11-26T17:53:45.513Z,1.27
2022-11-26T17:56:23.566Z,1.35
2022-11-26T17:58:50.521Z,1.25
2022-11-26T18:01:18.020Z,1.35
2022-11-26T18:03:45.713Z,1.42
2022-11-26T18:06:26.197Z,1.10
2022-11-26T18:08:52.957Z,1.35
2022-11-26T18:11:19.841Z,1.30
2022-11-26T18:13:46.640Z,1.20
2022-11-26T18:16:14.985Z,1.30
2022-11-26T18:18:44.727Z,1.35
2022-11-26T18:21:12.547Z,1.73
2022-11-26T18:23:41.331Z,1.42
2022-11-26T18:26:16.783Z,1.67
2022-11-26T18:28:43.515Z,1.35
2022-11-26T18:31:10.402Z,1.50
2022-11-26T18:33:37.120Z,1.58
2022-11-26T18:36:04.045Z,1.50
2022-11-26T18:38:33.032Z,1.30
2022-11-26T18:41:03.578Z,1.90
2022-11-26T18:43:31.672Z,1.55
2022-11-26T18:45:58.664Z,1.27
2022-11-26T18:48:25.318Z,1.40
2022-11-26T18:51:02.111Z,1.67
2022-11-26T18:53:29.460Z,1.65
2022-11-26T18:56:14.420Z,1.70
2022-11-26T18:58:41.678Z,1.40
2022-11-26T19:01:20.260Z,1.73
2022-11-26T19:03:47.129Z,1.60
2022-11-26T19:06:19.002Z,1.25
2022-11-26T19:08:46.693Z,1.30
2022-11-26T19:11:21.816Z,1.58
2022-11-26T19:13:48.631Z,1.40
2022-11-26T19:16:18.015Z,1.73
2022-11-26T19:21:23.817Z,1.42
2022-11-26T19:23:51.784Z,1.40
2022-11-26T19:26:18.766Z,1.92
2022-11-26T19:28:45.870Z,1.35
2022-11-26T19:31:15.436Z,1.55
2022-11-26T19:33:42.493Z,1.45
2022-11-26T19:36:12.923Z,1.50
2022-11-26T19:38:39.631Z,1.45
2022-11-26T19:41:06.988Z,1.20
2022-11-26T19:43:35.670Z,1.52
2022-11-26T19:46:07.781Z,1.30
2022-11-26T19:48:37.162Z,1.58
2022-11-26T19:53:32.192Z,1.40
2022-11-26T19:56:02.209Z,1.30
2022-11-26T19:58:30.624Z,1.35
2022-11-26T20:00:57.647Z,1.77
2022-11-26T20:03:25.299Z,1.48
2022-11-26T20:05:52.528Z,1.73
2022-11-26T20:08:19.108Z,1.27
2022-11-26T20:10:49.942Z,1.58
2022-11-26T20:13:16.775Z,1.58
2022-11-26T20:15:53.399Z,1.60
2022-11-26T20:18:20.099Z,1.65
2022-11-26T20:20:58.533Z,1.60
2022-11-26T20:23:25.732Z,1.50
2022-11-26T20:25:52.520Z,1.50
2022-11-26T20:28:19.317Z,1.30
2022-11-26T20:30:46.030Z,1.45
2022-11-26T20:33:12.713Z,1.33
2022-11-26T20:35:40.739Z,1.40
2022-11-26T20:38:07.769Z,1.50
2022-11-26T20:40:34.398Z,1.40
2022-11-26T20:43:01.064Z,1.60
2022-11-26T20:45:27.580Z,1.50
2022-11-26T20:47:55.839Z,1.58
2022-11-26T20:50:22.591Z,1.50
2022-11-26T20:52:49.336Z,1.50
2022-11-26T20:55:18.057Z,1.73
2022-11-26T20:57:44.684Z,1.48
2022-11-26T21:00:16.917Z,1.60
2022-11-26T21:02:47.553Z,1.40
2022-11-26T21:05:15.578Z,1.80
2022-11-26T21:07:42.444Z,1.50
2022-11-26T21:10:09.805Z,1.52
2022-11-26T21:12:37.464Z,1.45
2022-11-26T21:15:05.624Z,1.42
2022-11-26T21:17:32.403Z,1.80
2022-11-26T21:19:58.971Z,1.50
2022-11-26T21:22:25.640Z,1.42
2022-11-26T21:24:52.199Z,1.63
2022-11-26T21:27:18.846Z,1.55
2022-11-26T21:29:46.486Z,1.48
2022-11-26T21:32:13.140Z,1.20
2022-11-26T21:34:39.912Z,1.20
2022-11-26T21:37:06.653Z,1.40
2022-11-26T21:39:33.473Z,1.23
2022-11-26T21:42:00.156Z,1.60
2022-11-26T21:44:26.789Z,1.13
2022-11-26T21:46:53.510Z,1.10
2022-11-26T21:49:20.099Z,1.40
2022-11-26T21:51:46.740Z,1.20
2022-11-26T21:54:13.333Z,1.33
2022-11-26T21:56:39.915Z,1.25
2022-11-26T21:59:06.583Z,1.38
2022-11-26T22:01:36.006Z,1.25
2022-11-26T22:04:07.236Z,1.42
2022-11-26T22:06:34.558Z,1.20
2022-11-26T22:09:01.463Z,1.55
2022-11-26T22:11:30.747Z,1.83
2022-11-26T22:14:00.400Z,1.20
2022-11-26T22:16:29.625Z,1.30
2022-11-26T22:18:58.070Z,1.50
2022-11-26T22:21:33.399Z,1.30
2022-11-26T22:24:01.866Z,1.20
2022-11-26T22:26:31.473Z,1.35
2022-11-26T22:28:58.866Z,1.27
2022-11-26T22:31:28.287Z,1.92
2022-11-26T22:33:56.961Z,1.58
2022-11-26T22:36:24.557Z,1.20
2022-11-26T22:38:51.468Z,1.67
2022-11-26T22:41:18.174Z,1.00
2022-11-26T22:43:44.980Z,1.38
2022-11-26T22:46:14.965Z,1.45
2022-11-26T22:48:42.584Z,1.65
2022-11-26T22:51:10.121Z,1.42
2022-11-26T22:53:37.237Z,1.30
2022-11-26T22:56:04.329Z,1.50
2022-11-26T22:58:33.676Z,1.33
2022-11-26T23:01:03.455Z,1.55
2022-11-26T23:03:32.826Z,1.52
2022-11-26T23:06:08.591Z,1.20
2022-11-26T23:08:35.847Z,1.25
2022-11-26T23:11:34.009Z,1.48
2022-11-26T23:14:02.278Z,1.60
2022-11-26T23:16:29.412Z,1.30
2022-11-26T23:18:57.126Z,1.60
2022-11-26T23:21:36.102Z,1.55
2022-11-26T23:24:02.850Z,1.30
2022-11-26T23:26:32.708Z,1.17
2022-11-26T23:29:01.564Z,1.33
2022-11-26T23:31:39.860Z,1.27
2022-11-26T23:34:07.414Z,1.33
2022-11-26T23:36:35.310Z,1.42
2022-11-26T23:39:04.516Z,1.60
2022-11-26T23:41:31.082Z,1.35
2022-11-26T23:43:57.782Z,1.40
2022-11-26T23:46:30.969Z,1.67
2022-11-26T23:48:57.923Z,1.50
2022-11-26T23:51:27.863Z,1.40
2022-11-26T23:53:54.820Z,1.50
2022-11-26T23:56:24.613Z,1.33
2022-11-26T23:58:53.886Z,1.50
